Terminal Aerodrome Forecast
Issued by NWS

Home | Current Version | Previous Version | Text Only | Print | Product List | Glossary On
Versions: 1 2 3 4 5 6 7 8 9 10 11 12 13
000
FTAK31 PAJN 261700
TAFAWG
TAF
PAWG 261720Z 2618/2718 12017G25KT P6SM -RA SCT025 OVC045
      WS020/14025KT
     FM262100 12010G20KT 5SM -RA BKN020 OVC040
     FM270000 13009KT P6SM -SHRA SCT020 BKN030 OVC050
     FM270900 13010KT P6SM -SHRA SCT020 BKN035 OVC050
      AMD LTD TO CLD VIS AND WIND 2706/2715=

USA.gov is the U.S. government's official web portal to all federal, state and local government web resources and services.